createdAt,value
2019-01-13T00:02:21.101Z,8.00
2019-01-13T00:04:52.978Z,8.00
2019-01-13T00:07:26.663Z,8.00
2019-01-13T00:09:58.728Z,8.00
2019-01-13T00:12:35.559Z,8.00
2019-01-13T00:15:04.597Z,8.10
2019-01-13T00:17:36.397Z,8.10
2019-01-13T00:20:09.645Z,8.10
2019-01-13T00:22:41.292Z,8.10
2019-01-13T00:25:13.431Z,8.10
2019-01-13T00:27:45.567Z,8.00
2019-01-13T00:30:19.412Z,8.10
2019-01-13T00:32:51.856Z,8.10
2019-01-13T00:35:23.882Z,8.10
2019-01-13T00:37:55.707Z,8.00
2019-01-13T00:40:27.849Z,8.10
2019-01-13T00:42:59.813Z,8.00
2019-01-13T00:45:31.866Z,8.00
2019-01-13T00:48:04.983Z,8.00
2019-01-13T00:50:36.520Z,8.00
2019-01-13T00:53:09.034Z,7.90
2019-01-13T00:55:40.611Z,7.90
2019-01-13T00:58:12.238Z,7.90
2019-01-13T01:00:44.882Z,7.80
2019-01-13T01:03:17.256Z,7.80
2019-01-13T01:05:50.456Z,7.80
2019-01-13T01:08:22.308Z,7.80
2019-01-13T01:10:55.176Z,7.70
2019-01-13T01:13:26.752Z,7.70
2019-01-13T01:15:59.233Z,7.70
2019-01-13T01:18:31.149Z,7.70
2019-01-13T01:21:02.730Z,7.70
2019-01-13T01:23:36.350Z,7.70
2019-01-13T01:26:08.268Z,7.70
2019-01-13T01:28:40.294Z,7.70
2019-01-13T01:31:12.855Z,7.70
2019-01-13T01:33:44.920Z,7.70
2019-01-13T01:36:17.648Z,7.70
2019-01-13T01:38:49.895Z,7.70
2019-01-13T01:41:21.676Z,7.80
2019-01-13T01:43:53.644Z,7.80
2019-01-13T01:46:26.092Z,7.80
2019-01-13T01:48:58.891Z,7.80
2019-01-13T01:51:31.058Z,7.70
2019-01-13T01:54:03.011Z,7.80
2019-01-13T01:56:34.849Z,7.70
2019-01-13T01:59:09.556Z,7.80
2019-01-13T02:01:41.269Z,7.70
2019-01-13T02:04:15.607Z,7.70
2019-01-13T02:06:47.444Z,7.70
2019-01-13T02:09:19.431Z,7.60
2019-01-13T02:11:51.918Z,7.60
2019-01-13T02:14:24.182Z,7.60
2019-01-13T02:16:57.795Z,7.60
2019-01-13T02:19:30.215Z,7.60
2019-01-13T02:22:02.398Z,7.60
2019-01-13T02:24:35.356Z,7.60
2019-01-13T02:27:08.254Z,7.60
2019-01-13T02:29:41.545Z,7.60
2019-01-13T02:32:13.687Z,7.50
2019-01-13T02:34:46.049Z,7.50
2019-01-13T02:37:18.532Z,7.40
2019-01-13T02:39:50.864Z,7.50
2019-01-13T02:42:23.211Z,7.50
2019-01-13T02:44:55.294Z,7.50
2019-01-13T02:47:26.998Z,7.50
2019-01-13T02:49:59.089Z,7.50
2019-01-13T02:52:31.213Z,7.50
2019-01-13T02:55:05.121Z,7.50
2019-01-13T02:57:36.908Z,7.50
2019-01-13T03:00:12.225Z,7.50
2019-01-13T03:02:44.294Z,7.50
2019-01-13T03:05:17.167Z,7.50
2019-01-13T03:07:49.148Z,7.50
2019-01-13T03:10:25.677Z,7.50
2019-01-13T03:12:57.710Z,7.50
2019-01-13T03:15:30.002Z,7.50
2019-01-13T03:18:02.063Z,7.50
2019-01-13T03:20:34.237Z,7.50
2019-01-13T03:23:06.107Z,7.50
2019-01-13T03:25:38.477Z,7.60
2019-01-13T03:28:12.853Z,7.50
2019-01-13T03:30:44.416Z,7.60
2019-01-13T03:33:16.783Z,7.60
2019-01-13T03:35:48.603Z,7.60
2019-01-13T03:38:20.356Z,7.60
2019-01-13T03:40:52.249Z,7.60
2019-01-13T03:43:24.660Z,7.60
2019-01-13T03:46:00.793Z,7.60
2019-01-13T03:48:32.931Z,7.60
2019-01-13T03:51:04.949Z,7.60
2019-01-13T03:53:37.566Z,7.60
2019-01-13T03:56:09.637Z,7.60
2019-01-13T03:58:41.752Z,7.60
2019-01-13T04:01:18.573Z,7.60
2019-01-13T04:03:47.900Z,7.60
2019-01-13T04:06:20.031Z,7.60
2019-01-13T04:08:51.953Z,7.60
2019-01-13T04:11:24.632Z,7.60
2019-01-13T04:13:57.925Z,7.60
2019-01-13T04:16:31.486Z,7.60
2019-01-13T04:19:03.957Z,7.70
2019-01-13T04:21:35.609Z,7.70
2019-01-13T04:24:09.183Z,7.70
2019-01-13T04:26:43.150Z,7.70
2019-01-13T04:29:15.808Z,7.70
2019-01-13T04:31:48.904Z,7.70
2019-01-13T04:34:21.842Z,7.70
2019-01-13T04:36:56.863Z,7.70
2019-01-13T04:39:28.596Z,7.70
2019-01-13T04:42:00.647Z,7.80
2019-01-13T04:44:32.216Z,7.80
2019-01-13T04:47:04.311Z,7.80
2019-01-13T04:49:36.106Z,7.80
2019-01-13T04:52:08.979Z,7.80
2019-01-13T04:54:41.983Z,7.80
2019-01-13T04:57:16.464Z,7.80
2019-01-13T04:59:50.850Z,7.80
2019-01-13T05:02:23.271Z,7.80
2019-01-13T05:04:55.504Z,7.80
2019-01-13T05:07:27.563Z,7.80
2019-01-13T05:09:59.764Z,7.80
2019-01-13T05:12:31.839Z,7.80
2019-01-13T05:15:03.512Z,7.80
2019-01-13T05:17:35.462Z,7.80
2019-01-13T05:20:09.916Z,7.80
2019-01-13T05:22:41.879Z,7.80
2019-01-13T05:25:14.458Z,7.80
2019-01-13T05:27:46.510Z,7.80
2019-01-13T05:30:20.259Z,7.80
2019-01-13T05:32:52.480Z,7.80
2019-01-13T05:35:25.733Z,7.80
2019-01-13T05:37:57.743Z,7.80
2019-01-13T05:40:29.794Z,7.80
2019-01-13T05:43:02.790Z,7.80
2019-01-13T05:45:34.749Z,7.80
2019-01-13T05:48:06.865Z,7.80
2019-01-13T05:50:39.137Z,7.80
2019-01-13T05:53:12.552Z,7.90
2019-01-13T05:55:45.178Z,7.90
2019-01-13T05:58:17.728Z,7.90
2019-01-13T06:00:49.795Z,7.90
2019-01-13T06:03:22.078Z,7.90
2019-01-13T06:05:53.948Z,7.90
2019-01-13T06:08:26.209Z,7.90
2019-01-13T06:10:58.758Z,7.90
2019-01-13T06:13:31.282Z,7.90
2019-01-13T06:16:03.510Z,7.90
2019-01-13T06:18:36.821Z,7.90
2019-01-13T06:21:09.169Z,7.90
2019-01-13T06:23:43.590Z,7.90
2019-01-13T06:26:16.132Z,7.90
2019-01-13T06:28:48.704Z,7.90
2019-01-13T06:31:20.951Z,7.90
2019-01-13T06:33:53.690Z,7.90
2019-01-13T06:36:26.083Z,7.90
2019-01-13T06:38:58.533Z,7.90
2019-01-13T06:41:31.206Z,8.00
2019-01-13T06:44:03.671Z,8.00
2019-01-13T06:46:36.065Z,8.00
2019-01-13T06:49:09.741Z,8.00
2019-01-13T06:51:42.468Z,8.00
2019-01-13T06:54:15.006Z,8.00
2019-01-13T06:56:47.356Z,8.00
2019-01-13T06:59:19.686Z,8.00
2019-01-13T07:01:51.308Z,8.00
2019-01-13T07:04:24.338Z,8.00
2019-01-13T07:07:04.765Z,8.00
2019-01-13T07:09:36.905Z,8.00
2019-01-13T07:12:08.873Z,8.10
2019-01-13T07:14:41.262Z,8.10
2019-01-13T07:17:13.554Z,8.10
2019-01-13T07:19:46.154Z,8.10
2019-01-13T07:22:18.560Z,8.10
2019-01-13T07:24:51.175Z,8.20
2019-01-13T07:27:23.371Z,8.10
2019-01-13T07:29:55.920Z,8.20
2019-01-13T07:32:28.412Z,8.10
2019-01-13T07:35:01.922Z,8.20
2019-01-13T07:37:35.494Z,8.20
2019-01-13T07:40:14.638Z,8.20
2019-01-13T07:42:49.183Z,8.30
2019-01-13T07:45:27.734Z,8.20
2019-01-13T07:48:02.497Z,8.30
2019-01-13T07:50:36.815Z,8.30
2019-01-13T07:53:12.200Z,8.30
2019-01-13T07:55:46.546Z,8.30
2019-01-13T07:58:23.296Z,8.30
2019-01-13T08:00:58.890Z,8.30
2019-01-13T08:03:33.380Z,8.40
2019-01-13T08:06:09.407Z,8.40
2019-01-13T08:08:44.871Z,8.40
2019-01-13T08:11:19.575Z,8.40
2019-01-13T08:13:52.970Z,8.50
2019-01-13T08:16:26.695Z,8.50
2019-01-13T08:18:59.745Z,8.50
2019-01-13T08:21:33.543Z,8.50
2019-01-13T08:24:07.270Z,8.50
2019-01-13T08:26:40.980Z,8.60
2019-01-13T08:29:13.853Z,8.60
2019-01-13T08:31:46.459Z,8.70
2019-01-13T08:34:20.636Z,8.70
2019-01-13T08:36:52.980Z,8.70
2019-01-13T08:39:25.636Z,8.80
2019-01-13T08:41:57.897Z,8.80
2019-01-13T08:44:30.615Z,8.90
2019-01-13T08:47:03.581Z,8.90
2019-01-13T08:49:36.396Z,9.00
2019-01-13T08:52:12.207Z,9.00
2019-01-13T08:54:47.415Z,9.00
2019-01-13T08:57:20.842Z,9.10
2019-01-13T08:59:55.075Z,9.00
2019-01-13T09:02:32.318Z,9.10
2019-01-13T09:05:05.825Z,9.10
2019-01-13T09:07:38.744Z,9.10
2019-01-13T09:10:14.005Z,9.10
2019-01-13T09:12:56.384Z,9.10
2019-01-13T09:15:26.258Z,9.20
2019-01-13T09:18:01.419Z,9.20
2019-01-13T09:20:37.654Z,9.20
2019-01-13T09:23:13.147Z,9.20
2019-01-13T09:25:47.695Z,9.20
2019-01-13T09:28:21.372Z,9.20
2019-01-13T09:30:55.553Z,9.20
2019-01-13T09:33:29.396Z,9.20
2019-01-13T09:36:02.935Z,9.20
2019-01-13T09:38:40.115Z,9.20
2019-01-13T09:41:14.895Z,9.20
2019-01-13T09:43:49.174Z,9.20
2019-01-13T09:46:23.697Z,9.20
2019-01-13T09:48:59.749Z,9.20
2019-01-13T09:51:33.552Z,9.20
2019-01-13T09:54:10.771Z,9.20
2019-01-13T09:56:47.334Z,9.20
2019-01-13T09:59:22.661Z,9.20
2019-01-13T10:01:58.214Z,9.20
2019-01-13T10:04:31.184Z,9.20
2019-01-13T10:07:05.971Z,9.20
2019-01-13T10:09:42.586Z,9.20
2019-01-13T10:12:17.923Z,9.20
2019-01-13T10:14:54.436Z,9.20
2019-01-13T10:17:27.786Z,9.20
2019-01-13T10:20:06.016Z,9.20
2019-01-13T10:22:39.998Z,9.20
2019-01-13T10:25:12.666Z,9.20
2019-01-13T10:27:44.903Z,9.20
2019-01-13T10:30:20.835Z,9.30
2019-01-13T10:32:55.164Z,9.30
2019-01-13T10:35:34.004Z,9.30
2019-01-13T10:38:06.608Z,9.30
2019-01-13T10:40:38.644Z,9.30
2019-01-13T10:43:10.684Z,9.30
2019-01-13T10:45:49.675Z,9.20
2019-01-13T10:48:26.922Z,9.20
2019-01-13T10:51:00.089Z,9.20
2019-01-13T10:53:33.687Z,9.20
2019-01-13T10:56:06.193Z,9.20
2019-01-13T10:58:38.402Z,9.20
2019-01-13T11:01:12.039Z,9.20
2019-01-13T11:03:44.771Z,9.20
2019-01-13T11:06:17.247Z,9.20
2019-01-13T11:08:52.245Z,9.20
2019-01-13T11:11:25.223Z,9.20
2019-01-13T11:13:58.863Z,9.10
2019-01-13T11:16:36.274Z,9.10
2019-01-13T11:19:08.969Z,9.10
2019-01-13T11:21:46.505Z,9.10
2019-01-13T11:24:17.636Z,9.10
2019-01-13T11:26:51.083Z,9.10
2019-01-13T11:29:21.852Z,9.20
2019-01-13T11:31:57.097Z,9.10
2019-01-13T11:34:28.694Z,9.10
2019-01-13T11:37:02.950Z,9.10
2019-01-13T11:39:34.076Z,9.10
2019-01-13T11:42:06.551Z,9.10
2019-01-13T11:44:37.193Z,9.10
2019-01-13T11:47:08.568Z,9.20
2019-01-13T11:49:39.327Z,9.10
2019-01-13T11:52:10.035Z,9.20
2019-01-13T11:54:42.389Z,9.20
2019-01-13T11:57:13.049Z,9.20
2019-01-13T12:02:32.644Z,9.20
2019-01-13T12:05:02.239Z,9.20
2019-01-13T12:07:33.235Z,9.20
2019-01-13T12:10:04.804Z,9.20
2019-01-13T12:12:35.645Z,9.20
2019-01-13T12:15:09.237Z,9.20
2019-01-13T12:17:41.249Z,9.20
2019-01-13T12:20:14.543Z,9.20
2019-01-13T12:22:46.566Z,9.20
2019-01-13T12:25:17.987Z,9.20
2019-01-13T12:27:48.733Z,9.20
2019-01-13T12:30:24.806Z,9.30
2019-01-13T12:32:57.920Z,9.30
2019-01-13T12:35:28.585Z,9.30
2019-01-13T12:37:59.373Z,9.20
2019-01-13T12:40:32.058Z,9.20
2019-01-13T12:43:04.050Z,9.30
2019-01-13T12:45:34.912Z,9.30
2019-01-13T12:48:06.451Z,9.30
2019-01-13T12:50:39.314Z,9.30
2019-01-13T12:53:10.568Z,9.30
2019-01-13T12:55:41.230Z,9.20
2019-01-13T12:58:14.140Z,9.20
2019-01-13T13:00:44.886Z,9.20
2019-01-13T13:03:16.541Z,9.20
2019-01-13T13:05:48.324Z,9.20
2019-01-13T13:08:19.242Z,9.20
2019-01-13T13:10:54.440Z,9.30
2019-01-13T13:13:25.521Z,9.20
2019-01-13T13:15:56.977Z,9.20
2019-01-13T13:18:29.353Z,9.20
2019-01-13T13:21:00.293Z,9.20
2019-01-13T13:23:31.132Z,9.20
2019-01-13T13:26:01.997Z,9.20
2019-01-13T13:28:32.738Z,9.20
2019-01-13T13:31:04.705Z,9.20
2019-01-13T13:33:38.933Z,9.20
2019-01-13T13:36:10.697Z,9.20
2019-01-13T13:38:41.311Z,9.20
2019-01-13T13:41:11.934Z,9.20
2019-01-13T13:43:41.594Z,9.20
2019-01-13T13:46:12.215Z,9.20
2019-01-13T13:48:43.214Z,9.20
2019-01-13T13:51:14.635Z,9.20
2019-01-13T13:53:45.390Z,9.20
2019-01-13T13:56:16.084Z,9.20
2019-01-13T13:58:46.935Z,9.20
2019-01-13T14:01:18.012Z,9.20
2019-01-13T14:03:48.738Z,9.20
2019-01-13T14:06:19.369Z,9.20
2019-01-13T14:08:50.023Z,9.20
2019-01-13T14:11:20.679Z,9.20
2019-01-13T14:13:51.529Z,9.20
2019-01-13T14:16:22.221Z,9.20
2019-01-13T14:18:52.964Z,9.20
2019-01-13T14:21:23.610Z,9.20
2019-01-13T14:23:54.220Z,9.20
2019-01-13T14:26:25.031Z,9.20
2019-01-13T14:28:57.366Z,9.20
2019-01-13T14:31:27.900Z,9.20
2019-01-13T14:33:58.640Z,9.20
2019-01-13T14:36:32.812Z,9.20
2019-01-13T14:39:07.711Z,9.20
2019-01-13T14:41:38.446Z,9.20
2019-01-13T14:44:09.327Z,9.20
2019-01-13T14:46:39.880Z,9.20
2019-01-13T14:49:11.036Z,9.20
2019-01-13T14:51:41.831Z,9.20
2019-01-13T14:54:12.464Z,9.20
2019-01-13T14:56:43.152Z,9.20
2019-01-13T14:59:14.042Z,9.20
2019-01-13T15:01:44.664Z,9.20
2019-01-13T15:04:15.402Z,9.20
2019-01-13T15:06:46.212Z,9.20
2019-01-13T15:09:16.923Z,9.20
2019-01-13T15:11:47.695Z,9.10
2019-01-13T15:14:19.517Z,9.20
2019-01-13T15:16:50.244Z,9.10
2019-01-13T15:19:20.886Z,9.10
2019-01-13T15:21:51.606Z,9.10
2019-01-13T15:24:22.165Z,9.10
2019-01-13T15:26:55.243Z,9.10
2019-01-13T15:29:25.906Z,9.10
2019-01-13T15:31:56.723Z,9.10
2019-01-13T15:34:28.660Z,9.10
2019-01-13T15:36:59.295Z,9.10
2019-01-13T15:39:30.018Z,9.10
2019-01-13T15:42:00.667Z,9.10
2019-01-13T15:44:31.328Z,9.10
2019-01-13T15:47:03.027Z,9.10
2019-01-13T15:49:33.756Z,9.10
2019-01-13T15:52:04.588Z,9.10
2019-01-13T15:54:36.567Z,9.10
2019-01-13T15:57:09.567Z,9.10
2019-01-13T15:59:40.464Z,9.10
2019-01-13T16:02:11.585Z,9.10
2019-01-13T16:04:42.366Z,9.10
2019-01-13T16:07:15.354Z,9.10
2019-01-13T16:09:47.216Z,9.10
2019-01-13T16:12:17.864Z,9.00
2019-01-13T16:14:48.592Z,9.10
2019-01-13T16:17:19.261Z,9.10
2019-01-13T16:19:49.878Z,9.10
2019-01-13T16:22:21.031Z,9.10
2019-01-13T16:24:53.577Z,9.10
2019-01-13T16:27:24.403Z,9.10
2019-01-13T16:30:02.838Z,9.10
2019-01-13T16:32:39.299Z,9.10
2019-01-13T16:35:12.261Z,9.10
2019-01-13T16:37:43.060Z,9.10
2019-01-13T16:40:15.930Z,9.10
2019-01-13T16:42:47.158Z,9.10
2019-01-13T16:45:20.959Z,9.10
2019-01-13T16:47:53.215Z,9.10
2019-01-13T16:50:25.349Z,9.10
2019-01-13T16:52:57.945Z,9.20
2019-01-13T16:55:29.000Z,9.20
2019-01-13T16:58:02.590Z,9.20
2019-01-13T17:00:36.258Z,9.20
2019-01-13T17:03:09.454Z,9.10
2019-01-13T17:05:41.608Z,9.20
2019-01-13T17:08:15.388Z,9.20
2019-01-13T17:10:46.118Z,9.20
2019-01-13T17:13:18.155Z,9.20
2019-01-13T17:15:51.342Z,9.20
2019-01-13T17:18:25.513Z,9.20
2019-01-13T17:20:56.138Z,9.20
2019-01-13T17:23:29.365Z,9.10
2019-01-13T17:26:00.215Z,9.10
2019-01-13T17:28:31.059Z,9.10
2019-01-13T17:31:01.945Z,9.10
2019-01-13T17:33:32.589Z,9.00
2019-01-13T17:36:03.355Z,9.00
2019-01-13T17:38:40.251Z,8.90
2019-01-13T17:41:12.254Z,8.90
2019-01-13T17:43:46.301Z,8.90
2019-01-13T17:46:19.533Z,9.00
2019-01-13T17:48:51.858Z,9.00
2019-01-13T17:51:22.602Z,8.90
2019-01-13T17:53:54.466Z,8.90
2019-01-13T17:56:26.284Z,8.90
2019-01-13T17:58:57.061Z,9.00
2019-01-13T18:01:40.908Z,9.00
2019-01-13T18:04:13.172Z,9.00
2019-01-13T18:06:45.907Z,9.00
2019-01-13T18:55:07.031Z,7.10
2019-01-13T18:57:37.660Z,7.10
2019-01-13T19:00:11.356Z,7.20
2019-01-13T19:02:42.268Z,7.20
2019-01-13T19:05:13.851Z,7.30
2019-01-13T19:07:46.932Z,7.20
2019-01-13T19:10:30.224Z,7.20
2019-01-13T19:13:16.742Z,7.20
2019-01-13T19:15:51.457Z,7.20
2019-01-13T19:18:29.967Z,7.30
2019-01-13T19:21:04.149Z,7.30
2019-01-13T19:23:37.292Z,7.30
2019-01-13T19:26:10.556Z,7.30
2019-01-13T19:28:44.360Z,7.40
2019-01-13T19:31:17.102Z,7.30
2019-01-13T19:33:50.462Z,7.30
2019-01-13T19:36:23.300Z,7.20
2019-01-13T19:38:56.032Z,7.10
2019-01-13T19:41:29.761Z,7.10
2019-01-13T19:44:06.843Z,7.10
2019-01-13T19:46:39.503Z,7.00
2019-01-13T19:49:14.271Z,7.00
2019-01-13T19:51:48.420Z,7.00
2019-01-13T19:54:22.902Z,7.10
2019-01-13T19:56:57.644Z,7.20
2019-01-13T19:59:31.841Z,7.40
2019-01-13T20:02:08.065Z,7.40
2019-01-13T20:04:44.652Z,7.40
2019-01-13T20:07:22.241Z,7.40
2019-01-13T20:09:57.858Z,7.40
2019-01-13T20:12:33.700Z,7.40
2019-01-13T20:15:09.887Z,7.40
2019-01-13T20:17:48.322Z,7.40
2019-01-13T20:20:22.386Z,7.50
2019-01-13T20:22:58.957Z,7.50
2019-01-13T20:25:34.589Z,7.50
2019-01-13T20:28:10.123Z,7.50
2019-01-13T20:30:43.839Z,7.50
2019-01-13T20:33:17.932Z,7.40
2019-01-13T20:35:51.568Z,7.40
2019-01-13T20:38:25.784Z,7.40
2019-01-13T20:41:00.841Z,7.30
2019-01-13T20:43:35.447Z,7.20
2019-01-13T20:46:12.944Z,7.20
2019-01-13T20:48:47.970Z,7.10
2019-01-13T20:51:31.980Z,7.10
2019-01-13T20:54:22.615Z,7.10
2019-01-13T20:56:59.863Z,6.90
2019-01-13T20:59:37.941Z,7.00
2019-01-13T21:02:16.433Z,6.90
2019-01-13T21:04:56.186Z,7.00
2019-01-13T21:07:32.950Z,7.10
2019-01-13T21:10:12.161Z,7.10
2019-01-13T21:12:48.869Z,7.10
2019-01-13T21:15:24.472Z,7.10
2019-01-13T21:18:06.398Z,7.10
2019-01-13T21:20:45.641Z,7.20
2019-01-13T21:23:19.162Z,7.20
2019-01-13T21:25:54.713Z,7.10
2019-01-13T21:28:44.226Z,7.10
2019-01-13T21:31:23.820Z,7.10
2019-01-13T21:34:00.148Z,7.00
2019-01-13T21:36:45.945Z,7.00
2019-01-13T21:39:29.432Z,7.10
2019-01-13T21:42:08.009Z,7.10
2019-01-13T21:44:45.370Z,7.20
2019-01-13T21:47:22.331Z,7.20
2019-01-13T21:50:01.273Z,7.10
2019-01-13T21:52:37.294Z,7.00
2019-01-13T21:55:13.090Z,7.00
2019-01-13T21:57:58.271Z,7.00
2019-01-13T22:00:35.725Z,7.10
2019-01-13T22:03:13.236Z,7.10
2019-01-13T22:05:51.057Z,7.00
2019-01-13T22:08:29.435Z,7.00
2019-01-13T22:11:03.530Z,7.10
2019-01-13T22:13:36.778Z,7.10
2019-01-13T22:16:15.908Z,7.10
2019-01-13T22:18:47.173Z,7.10
2019-01-13T22:21:21.935Z,7.10
2019-01-13T22:23:57.950Z,7.00
2019-01-13T22:26:31.601Z,6.90
2019-01-13T22:29:04.895Z,6.90
2019-01-13T22:31:37.850Z,6.90
2019-01-13T22:34:12.953Z,6.80
2019-01-13T22:36:48.688Z,6.80
2019-01-13T22:39:23.957Z,6.70
2019-01-13T22:41:57.241Z,6.80
2019-01-13T22:44:31.948Z,6.70
2019-01-13T22:47:06.502Z,6.80
2019-01-13T22:49:37.416Z,6.80
2019-01-13T22:52:13.905Z,7.00
2019-01-13T22:54:47.594Z,6.90
2019-01-13T22:57:23.401Z,6.90
2019-01-13T22:59:57.615Z,6.90
2019-01-13T23:02:31.122Z,6.70
2019-01-13T23:05:02.464Z,6.60
2019-01-13T23:07:36.391Z,6.50
2019-01-13T23:10:07.980Z,6.40
2019-01-13T23:12:40.094Z,6.40
2019-01-13T23:15:12.770Z,6.30
2019-01-13T23:17:46.162Z,6.30
2019-01-13T23:20:17.247Z,6.30
2019-01-13T23:22:50.506Z,6.30
2019-01-13T23:25:23.793Z,6.30
2019-01-13T23:27:55.257Z,6.30
2019-01-13T23:30:28.434Z,6.20
2019-01-13T23:33:03.616Z,6.20
2019-01-13T23:35:37.442Z,6.20
2019-01-13T23:38:10.589Z,6.20
2019-01-13T23:40:44.017Z,6.20
2019-01-13T23:43:17.202Z,6.30
2019-01-13T23:45:50.497Z,6.40
2019-01-13T23:48:23.190Z,6.40
2019-01-13T23:50:56.753Z,6.50
2019-01-13T23:53:30.565Z,6.60
2019-01-13T23:56:03.735Z,6.60
2019-01-13T23:58:37.650Z,6.60
